createdAt,value
2019-05-06T00:02:29.470Z,55.03
2019-05-06T00:05:04.007Z,54.59
2019-05-06T00:07:36.423Z,54.66
2019-05-06T00:10:24.620Z,54.61
2019-05-06T00:12:57.953Z,55.23
2019-05-06T00:15:31.030Z,54.18
2019-05-06T00:18:04.471Z,55.66
2019-05-06T00:20:37.632Z,54.18
2019-05-06T00:23:14.055Z,54.81
2019-05-06T00:26:05.925Z,54.53
2019-05-06T00:28:55.091Z,54.58
2019-05-06T00:31:27.758Z,54.37
2019-05-06T00:34:00.440Z,54.89
2019-05-06T00:36:34.462Z,55.27
2019-05-06T00:39:11.135Z,53.96
2019-05-06T00:41:44.107Z,55.74
2019-05-06T00:44:16.790Z,53.87
2019-05-06T00:46:49.416Z,55.08
2019-05-06T00:49:23.792Z,53.89
2019-05-06T00:51:56.370Z,54.43
2019-05-06T00:54:30.575Z,55.59
2019-05-06T00:57:03.626Z,54.94
2019-05-06T00:59:36.547Z,56.76
2019-05-06T01:02:09.227Z,55.34
2019-05-06T01:04:41.935Z,57.67
2019-05-06T01:07:17.452Z,56.22
2019-05-06T01:09:50.345Z,56.59
2019-05-06T01:12:24.133Z,56.64
2019-05-06T01:14:59.687Z,56.11
2019-05-06T01:17:33.882Z,57.47
2019-05-06T01:20:10.896Z,56.85
2019-05-06T01:22:43.753Z,58.72
2019-05-06T01:25:17.368Z,57.30
2019-05-06T01:27:50.368Z,59.71
2019-05-06T01:30:24.310Z,57.15
2019-05-06T01:32:57.963Z,57.36
2019-05-06T01:35:30.666Z,57.17
2019-05-06T01:38:24.316Z,57.68
2019-05-06T01:41:14.411Z,56.24
2019-05-06T01:43:47.361Z,58.13
2019-05-06T01:46:20.945Z,57.22
2019-05-06T01:48:53.736Z,57.42
2019-05-06T01:51:26.349Z,57.51
2019-05-06T01:53:59.024Z,56.33
2019-05-06T01:56:33.484Z,57.69
2019-05-06T01:59:06.237Z,57.38
2019-05-06T02:01:39.008Z,58.15
2019-05-06T02:04:13.670Z,56.65
2019-05-06T02:06:46.032Z,59.12
2019-05-06T02:09:19.400Z,56.33
2019-05-06T02:11:53.645Z,58.25
2019-05-06T02:14:26.603Z,57.37
2019-05-06T02:17:00.919Z,57.93
2019-05-06T02:19:34.716Z,56.88
2019-05-06T02:22:18.166Z,58.72
2019-05-06T02:24:50.545Z,56.83
2019-05-06T02:27:24.732Z,59.51
2019-05-06T02:29:59.264Z,57.16
2019-05-06T02:32:45.234Z,59.86
2019-05-06T02:35:16.617Z,57.86
2019-05-06T02:37:49.303Z,60.10
2019-05-06T02:40:28.446Z,57.58
2019-05-06T02:43:03.236Z,60.24
2019-05-06T02:45:35.426Z,57.33
2019-05-06T02:48:09.740Z,59.49
2019-05-06T02:50:44.665Z,57.16
2019-05-06T02:53:23.649Z,59.70
2019-05-06T02:55:56.273Z,57.30
2019-05-06T02:58:29.413Z,59.74
2019-05-06T03:01:03.579Z,58.03
2019-05-06T03:03:36.352Z,60.76
2019-05-06T03:06:17.106Z,57.94
2019-05-06T03:08:46.512Z,60.54
2019-05-06T03:11:23.984Z,57.71
2019-05-06T03:13:57.682Z,60.16
2019-05-06T03:16:37.771Z,58.01
2019-05-06T03:19:13.381Z,59.70
2019-05-06T03:21:57.727Z,56.48
2019-05-06T03:24:33.736Z,60.53
2019-05-06T03:27:06.963Z,57.69
2019-05-06T03:29:39.554Z,59.76
2019-05-06T03:32:24.729Z,57.30
2019-05-06T03:35:15.745Z,59.63
2019-05-06T03:37:29.358Z,57.97
2019-05-06T03:40:05.301Z,60.61
2019-05-06T03:42:42.644Z,58.06
2019-05-06T03:45:26.738Z,60.14
2019-05-06T03:48:05.384Z,58.53
2019-05-06T03:50:36.360Z,63.33
2019-05-06T03:53:10.078Z,59.52
2019-05-06T03:55:47.874Z,52.06
2019-05-06T03:58:43.471Z,53.37
2019-05-06T04:01:18.268Z,55.11
2019-05-06T04:03:57.244Z,56.45
2019-05-06T04:06:29.558Z,57.20
2019-05-06T04:09:13.053Z,57.15
2019-05-06T04:11:49.642Z,57.42
2019-05-06T04:14:24.474Z,58.90
2019-05-06T04:17:16.098Z,58.96
2019-05-06T04:19:53.586Z,59.75
2019-05-06T04:22:33.173Z,58.49
2019-05-06T04:25:10.480Z,60.78
2019-05-06T04:27:54.061Z,59.00
2019-05-06T04:30:27.849Z,59.98
2019-05-06T04:33:03.314Z,60.08
2019-05-06T04:35:35.473Z,60.23
2019-05-06T04:38:08.149Z,61.61
2019-05-06T04:40:43.672Z,61.22
2019-05-06T04:43:16.321Z,65.00
2019-05-06T04:45:53.722Z,60.62
2019-05-06T04:48:25.316Z,52.83
2019-05-06T04:50:57.996Z,54.12
2019-05-06T04:53:33.944Z,55.44
2019-05-06T04:56:05.909Z,56.37
2019-05-06T04:58:38.595Z,57.15
2019-05-06T05:01:14.892Z,58.31
2019-05-06T05:03:45.652Z,59.00
2019-05-06T05:06:23.097Z,59.53
2019-05-06T05:09:02.897Z,59.83
2019-05-06T05:11:49.525Z,60.29
2019-05-06T05:14:25.940Z,60.34
2019-05-06T05:17:02.240Z,60.83
2019-05-06T05:19:35.456Z,60.94
2019-05-06T05:22:08.136Z,60.94
2019-05-06T05:24:42.537Z,61.16
2019-05-06T05:27:15.849Z,61.15
2019-05-06T05:29:48.525Z,61.18
2019-05-06T05:32:22.466Z,61.20
2019-05-06T05:34:55.421Z,61.44
2019-05-06T05:37:28.045Z,61.26
2019-05-06T05:40:02.835Z,61.62
2019-05-06T05:42:36.628Z,61.75
2019-05-06T05:45:10.125Z,60.14
2019-05-06T05:47:42.910Z,60.64
2019-05-06T05:50:22.780Z,59.77
2019-05-06T05:52:55.839Z,56.05
2019-05-06T05:55:28.531Z,58.65
2019-05-06T05:58:03.182Z,59.15
2019-05-06T06:00:37.265Z,57.26
2019-05-06T06:03:09.945Z,57.64
2019-05-06T06:05:47.046Z,56.19
2019-05-06T06:08:25.070Z,55.56
2019-05-06T06:11:05.124Z,55.88
2019-05-06T06:13:38.721Z,54.94
2019-05-06T06:16:16.792Z,55.16
2019-05-06T06:19:06.666Z,54.85
2019-05-06T06:21:42.640Z,55.48
2019-05-06T06:24:19.404Z,56.58
2019-05-06T06:26:52.168Z,56.62
2019-05-06T06:29:25.272Z,55.90
2019-05-06T06:32:05.531Z,55.31
2019-05-06T06:34:39.845Z,55.98
2019-05-06T06:37:33.896Z,56.47
2019-05-06T06:40:13.117Z,56.38
2019-05-06T06:42:48.295Z,55.07
2019-05-06T06:45:23.099Z,55.56
2019-05-06T06:47:56.947Z,54.27
2019-05-06T06:50:32.838Z,52.38
2019-05-06T06:53:05.258Z,52.62
2019-05-06T06:55:38.959Z,52.59
2019-05-06T06:58:20.241Z,51.78
2019-05-06T07:00:57.321Z,51.47
2019-05-06T07:03:32.717Z,51.95
2019-05-06T07:06:13.546Z,51.54
2019-05-06T07:08:46.217Z,51.09
2019-05-06T07:11:18.847Z,50.92
2019-05-06T07:13:56.698Z,50.49
2019-05-06T07:16:29.376Z,50.06
2019-05-06T07:19:03.192Z,51.20
2019-05-06T07:21:44.827Z,50.56
2019-05-06T07:24:17.497Z,50.52
2019-05-06T07:26:52.423Z,50.25
2019-05-06T07:29:26.780Z,48.80
2019-05-06T07:31:59.884Z,49.21
2019-05-06T07:34:33.687Z,50.28
2019-05-06T07:37:06.580Z,50.58
2019-05-06T07:39:39.864Z,49.92
2019-05-06T07:42:17.082Z,49.38
2019-05-06T07:44:54.238Z,49.54
2019-05-06T07:47:28.557Z,50.23
2019-05-06T07:50:02.401Z,50.36
2019-05-06T07:52:35.348Z,50.41
2019-05-06T07:55:08.088Z,50.16
2019-05-06T07:57:42.379Z,49.52
2019-05-06T08:00:16.461Z,49.72
2019-05-06T08:02:49.137Z,49.01
2019-05-06T08:05:22.472Z,47.29
2019-05-06T08:07:56.491Z,47.73
2019-05-06T08:10:29.118Z,46.68
2019-05-06T08:13:02.748Z,45.43
2019-05-06T08:15:35.915Z,44.68
2019-05-06T08:18:08.590Z,44.84
2019-05-06T08:20:42.725Z,42.48
2019-05-06T08:23:17.332Z,43.12
2019-05-06T08:25:54.383Z,41.61
2019-05-06T08:28:37.459Z,38.71
2019-05-06T08:31:02.389Z,39.96
2019-05-06T08:33:36.025Z,38.53
2019-05-06T08:36:12.456Z,40.59
2019-05-06T08:39:02.803Z,37.86
2019-05-06T08:41:36.955Z,37.23
2019-05-06T08:44:09.787Z,38.61
2019-05-06T08:46:43.352Z,38.79
2019-05-06T08:49:17.709Z,40.30
2019-05-06T08:51:53.060Z,41.16
2019-05-06T08:54:32.485Z,36.68
2019-05-06T08:57:05.190Z,36.64
2019-05-06T08:59:37.844Z,35.26
2019-05-06T09:02:10.525Z,34.82
2019-05-06T09:04:43.208Z,35.30
2019-05-06T09:07:15.875Z,37.42
2019-05-06T09:09:48.765Z,38.17
2019-05-06T09:12:22.325Z,38.88
2019-05-06T09:14:56.061Z,36.90
2019-05-06T09:17:30.124Z,37.55
2019-05-06T09:20:02.821Z,33.70
2019-05-06T09:22:36.356Z,34.79
2019-05-06T09:25:14.300Z,35.38
2019-05-06T09:27:46.650Z,35.88
2019-05-06T09:30:30.311Z,34.70
2019-05-06T09:33:04.548Z,34.95
2019-05-06T09:35:38.345Z,34.93
2019-05-06T09:38:12.734Z,35.48
2019-05-06T09:40:45.490Z,35.92
2019-05-06T09:43:18.169Z,35.29
2019-05-06T09:45:53.009Z,33.98
2019-05-06T09:48:27.517Z,34.97
2019-05-06T09:51:02.762Z,35.27
2019-05-06T09:53:55.946Z,35.76
2019-05-06T09:56:33.367Z,36.41
2019-05-06T09:59:05.164Z,36.69
2019-05-06T10:01:38.058Z,36.26
2019-05-06T10:04:12.951Z,35.53
2019-05-06T10:06:56.194Z,35.68
2019-05-06T10:09:19.367Z,35.91
2019-05-06T10:11:53.275Z,36.16
2019-05-06T10:14:25.952Z,36.22
2019-05-06T10:16:58.941Z,34.35
2019-05-06T10:19:32.084Z,35.30
2019-05-06T10:22:04.811Z,34.88
2019-05-06T10:24:37.489Z,36.47
2019-05-06T10:27:12.118Z,36.07
2019-05-06T10:29:47.144Z,34.54
2019-05-06T10:32:22.496Z,35.01
2019-05-06T10:34:55.378Z,35.10
2019-05-06T10:37:36.139Z,35.86
2019-05-06T10:40:18.851Z,35.72
2019-05-06T10:43:07.915Z,36.94
2019-05-06T10:45:42.549Z,36.48
2019-05-06T10:48:14.915Z,35.19
2019-05-06T10:50:51.994Z,33.70
2019-05-06T10:53:25.288Z,34.28
2019-05-06T10:55:59.513Z,32.25
2019-05-06T10:58:32.729Z,34.06
2019-05-06T11:01:12.478Z,34.00
2019-05-06T11:03:45.017Z,33.76
2019-05-06T11:06:18.722Z,34.89
2019-05-06T11:08:52.564Z,36.01
2019-05-06T11:11:37.730Z,36.26
2019-05-06T11:14:03.128Z,37.48
2019-05-06T11:16:36.809Z,38.64
2019-05-06T11:19:09.489Z,38.88
2019-05-06T11:21:45.012Z,39.38
2019-05-06T11:24:16.480Z,39.42
2019-05-06T11:26:49.213Z,40.19
2019-05-06T11:29:23.489Z,40.99
2019-05-06T11:32:06.606Z,40.75
2019-05-06T11:34:47.169Z,41.39
2019-05-06T11:37:23.167Z,41.10
2019-05-06T11:39:56.210Z,41.36
2019-05-06T11:42:33.491Z,41.33
2019-05-06T11:45:03.387Z,41.05
2019-05-06T11:47:36.189Z,40.67
2019-05-06T11:50:12.953Z,40.31
2019-05-06T11:52:46.878Z,38.53
2019-05-06T11:55:28.936Z,39.10
2019-05-06T11:57:53.877Z,38.71
2019-05-06T12:00:28.197Z,38.32
2019-05-06T12:03:02.391Z,37.85
2019-05-06T12:05:35.287Z,37.48
2019-05-06T12:08:08.457Z,37.29
2019-05-06T12:10:42.485Z,36.43
2019-05-06T12:13:15.475Z,36.53
2019-05-06T12:15:48.315Z,35.02
2019-05-06T12:18:23.091Z,34.52
2019-05-06T12:21:07.947Z,35.59
2019-05-06T12:23:34.919Z,35.96
2019-05-06T12:26:05.563Z,35.50
2019-05-06T12:28:38.316Z,34.07
2019-05-06T12:31:12.632Z,34.47
2019-05-06T12:33:49.918Z,34.11
2019-05-06T12:36:24.027Z,34.80
2019-05-06T12:39:18.666Z,34.84
2019-05-06T12:41:53.496Z,33.93
2019-05-06T12:44:26.961Z,33.93
2019-05-06T12:47:06.901Z,33.47
2019-05-06T12:49:42.172Z,33.43
2019-05-06T12:52:13.997Z,32.97
2019-05-06T12:54:46.676Z,32.73
2019-05-06T12:57:20.068Z,32.50
2019-05-06T12:59:53.143Z,32.48
2019-05-06T13:02:26.143Z,32.34
2019-05-06T13:05:00.844Z,32.29
2019-05-06T13:07:34.679Z,29.70
2019-05-06T13:10:09.912Z,30.14
2019-05-06T13:12:44.390Z,27.53
2019-05-06T13:15:17.119Z,28.95
2019-05-06T13:17:49.799Z,27.13
2019-05-06T13:20:23.357Z,26.76
2019-05-06T13:23:07.374Z,26.64
2019-05-06T13:25:34.900Z,24.82
2019-05-06T13:28:09.222Z,26.16
2019-05-06T13:30:43.394Z,26.68
2019-05-06T13:33:25.250Z,27.31
2019-05-06T13:35:57.912Z,27.22
2019-05-06T13:38:32.070Z,27.51
2019-05-06T13:41:04.903Z,27.21
2019-05-06T13:43:45.109Z,28.76
2019-05-06T13:46:25.316Z,27.48
2019-05-06T13:48:57.642Z,26.82
2019-05-06T13:51:32.377Z,24.68
2019-05-06T13:54:04.684Z,23.48
2019-05-06T13:56:38.489Z,22.50
2019-05-06T13:59:12.830Z,23.03
2019-05-06T14:01:49.530Z,22.62
2019-05-06T14:04:24.076Z,22.14
2019-05-06T14:06:57.035Z,21.81
2019-05-06T14:09:37.297Z,22.71
2019-05-06T14:12:04.089Z,21.97
2019-05-06T14:14:36.713Z,23.30
2019-05-06T14:17:09.341Z,23.30
2019-05-06T14:19:42.878Z,22.34
2019-05-06T14:22:16.027Z,23.67
2019-05-06T14:24:50.292Z,21.48
2019-05-06T14:27:22.924Z,21.29
2019-05-06T14:30:04.144Z,19.94
2019-05-06T14:32:34.841Z,20.90
2019-05-06T14:35:08.947Z,19.96
2019-05-06T14:37:42.225Z,20.67
2019-05-06T14:40:17.376Z,20.93
2019-05-06T14:42:50.264Z,20.35
2019-05-06T14:45:22.945Z,20.24
2019-05-06T14:47:56.230Z,20.87
2019-05-06T14:50:32.418Z,21.16
2019-05-06T14:53:03.234Z,21.44
2019-05-06T14:55:37.459Z,21.65
2019-05-06T14:58:12.064Z,21.94
2019-05-06T15:00:44.443Z,22.44
2019-05-06T15:03:17.071Z,23.33
2019-05-06T15:05:49.801Z,23.33
2019-05-06T15:08:22.660Z,22.83
2019-05-06T15:10:55.517Z,22.46
2019-05-06T15:13:28.861Z,20.92
2019-05-06T15:16:03.504Z,21.48
2019-05-06T15:18:36.066Z,21.94
2019-05-06T15:21:32.314Z,21.50
2019-05-06T15:23:43.577Z,20.43
2019-05-06T15:26:16.260Z,20.63
2019-05-06T15:28:48.927Z,20.25
2019-05-06T15:31:29.493Z,19.71
2019-05-06T15:34:06.617Z,19.80
2019-05-06T15:36:40.892Z,20.50
2019-05-06T15:39:13.573Z,20.49
2019-05-06T15:41:46.460Z,20.24
2019-05-06T15:44:19.136Z,20.50
2019-05-06T15:46:52.761Z,21.29
2019-05-06T15:49:25.831Z,21.63
2019-05-06T15:51:58.506Z,22.55
2019-05-06T15:54:32.293Z,23.13
2019-05-06T15:57:05.099Z,23.55
2019-05-06T15:59:40.814Z,24.14
2019-05-06T16:02:12.191Z,24.03
2019-05-06T16:04:44.815Z,23.46
2019-05-06T16:07:17.455Z,22.36
2019-05-06T16:09:54.914Z,21.87
2019-05-06T16:12:24.594Z,21.20
2019-05-06T16:14:57.328Z,21.33
2019-05-06T16:17:32.741Z,20.60
2019-05-06T16:20:06.626Z,19.89
2019-05-06T16:22:39.256Z,20.63
2019-05-06T16:25:17.259Z,19.83
2019-05-06T16:27:54.537Z,20.11
2019-05-06T16:30:28.291Z,20.27
2019-05-06T16:33:04.118Z,19.59
2019-05-06T16:35:35.964Z,19.76
2019-05-06T16:38:08.588Z,19.86
2019-05-06T16:40:46.147Z,18.94
2019-05-06T16:43:23.135Z,19.14
2019-05-06T16:46:04.743Z,19.04
2019-05-06T16:48:38.585Z,19.64
2019-05-06T16:51:12.562Z,19.37
2019-05-06T16:53:46.526Z,19.25
2019-05-06T16:56:22.146Z,19.25
2019-05-06T16:59:07.206Z,19.55
2019-05-06T17:01:43.225Z,18.82
2019-05-06T17:04:20.189Z,19.30
2019-05-06T17:06:53.420Z,19.41
2019-05-06T17:09:27.714Z,19.66
2019-05-06T17:12:04.434Z,19.70
2019-05-06T17:14:35.304Z,19.93
2019-05-06T17:17:08.394Z,19.75
2019-05-06T17:19:42.207Z,20.00
2019-05-06T17:22:15.027Z,20.80
2019-05-06T17:24:48.752Z,21.60
2019-05-06T17:27:23.622Z,22.11
2019-05-06T17:29:59.878Z,23.43
2019-05-06T17:32:47.199Z,23.63
2019-05-06T17:35:19.997Z,24.57
2019-05-06T17:38:03.105Z,25.08
2019-05-06T17:40:35.884Z,25.38
2019-05-06T17:43:08.975Z,26.26
2019-05-06T17:46:01.056Z,27.85
2019-05-06T17:48:23.701Z,28.13
2019-05-06T17:51:13.679Z,28.92
2019-05-06T17:53:49.025Z,29.60
2019-05-06T17:56:22.453Z,30.64
2019-05-06T17:58:55.110Z,29.82
2019-05-06T18:01:45.604Z,30.49
2019-05-06T18:04:18.178Z,31.06
2019-05-06T18:06:52.629Z,31.81
2019-05-06T18:09:25.227Z,32.63
2019-05-06T18:12:02.897Z,33.43
2019-05-06T18:14:35.808Z,34.16
2019-05-06T18:17:08.489Z,35.27
2019-05-06T18:19:41.169Z,35.70
2019-05-06T18:22:13.873Z,35.90
2019-05-06T18:24:46.521Z,35.84
2019-05-06T18:27:22.483Z,36.57
2019-05-06T18:29:54.850Z,37.75
2019-05-06T18:32:29.163Z,37.57
2019-05-06T18:35:02.715Z,37.74
2019-05-06T18:37:36.369Z,39.22
2019-05-06T18:40:09.052Z,40.23
2019-05-06T18:42:43.029Z,42.31
2019-05-06T18:45:15.937Z,41.61
2019-05-06T18:47:48.625Z,42.81
2019-05-06T18:50:22.043Z,43.03
2019-05-06T18:52:57.729Z,43.15
2019-05-06T18:55:33.166Z,44.75
2019-05-06T18:58:06.407Z,44.27
2019-05-06T19:00:39.388Z,43.51
2019-05-06T19:03:12.168Z,47.10
2019-05-06T19:05:45.774Z,47.02
2019-05-06T19:08:26.949Z,47.35
2019-05-06T19:10:59.630Z,49.03
2019-05-06T19:13:33.493Z,47.96
2019-05-06T19:16:06.628Z,50.08
2019-05-06T19:18:39.304Z,49.50
2019-05-06T19:21:14.069Z,50.62
2019-05-06T19:23:48.707Z,51.42
2019-05-06T19:26:23.479Z,50.29
2019-05-06T19:29:04.358Z,49.28
2019-05-06T19:31:34.945Z,49.84
2019-05-06T19:34:08.694Z,51.93
2019-05-06T19:36:42.239Z,50.63
2019-05-06T19:39:17.556Z,51.58
2019-05-06T19:41:52.407Z,52.17
2019-05-06T19:44:25.457Z,51.24
2019-05-06T19:47:02.561Z,52.68
2019-05-06T19:49:44.947Z,52.33
2019-05-06T19:52:17.616Z,53.03
2019-05-06T19:54:52.116Z,53.50
2019-05-06T19:57:33.893Z,53.91
2019-05-06T20:00:14.631Z,53.27
2019-05-06T20:02:52.312Z,52.46
2019-05-06T20:05:36.076Z,54.44
2019-05-06T20:08:26.634Z,53.59
2019-05-06T20:11:19.177Z,53.19
2019-05-06T20:14:01.969Z,54.37
2019-05-06T20:16:35.932Z,53.10
2019-05-06T20:19:08.630Z,54.84
2019-05-06T20:21:42.393Z,54.91
2019-05-06T20:24:16.803Z,54.86
2019-05-06T20:26:50.035Z,54.69
2019-05-06T20:29:25.698Z,54.98
2019-05-06T20:31:58.345Z,55.73
2019-05-06T20:34:33.344Z,55.28
2019-05-06T20:37:06.549Z,54.33
2019-05-06T20:39:39.230Z,54.76
2019-05-06T20:42:12.857Z,54.92
2019-05-06T20:44:45.606Z,54.08
2019-05-06T20:47:19.825Z,53.57
2019-05-06T20:49:52.660Z,54.06
2019-05-06T20:52:26.522Z,54.51
2019-05-06T20:54:59.196Z,53.39
2019-05-06T20:57:33.299Z,54.02
2019-05-06T21:00:08.134Z,55.83
2019-05-06T21:02:42.704Z,55.90
2019-05-06T21:05:17.334Z,54.86
2019-05-06T21:07:49.958Z,56.08
2019-05-06T21:10:22.593Z,54.84
2019-05-06T21:12:55.215Z,54.49
2019-05-06T21:15:27.895Z,56.97
2019-05-06T21:18:03.783Z,55.64
2019-05-06T21:20:38.060Z,55.53
2019-05-06T21:23:10.692Z,55.57
2019-05-06T21:25:43.423Z,55.95
2019-05-06T21:28:16.103Z,57.04
2019-05-06T21:30:48.783Z,56.03
2019-05-06T21:33:22.143Z,56.40
2019-05-06T21:35:54.961Z,57.23
2019-05-06T21:38:27.647Z,56.81
2019-05-06T21:41:02.158Z,58.29
2019-05-06T21:43:46.001Z,57.62
2019-05-06T21:46:09.366Z,58.36
2019-05-06T21:48:43.780Z,59.61
2019-05-06T21:51:16.769Z,59.36
2019-05-06T21:53:49.447Z,59.59
2019-05-06T21:56:22.613Z,59.63
2019-05-06T21:58:55.523Z,59.11
2019-05-06T22:01:29.122Z,59.92
2019-05-06T22:04:03.317Z,60.44
2019-05-06T22:06:36.017Z,60.27
2019-05-06T22:09:08.696Z,60.93
2019-05-06T22:11:42.399Z,64.67
2019-05-06T22:14:15.286Z,57.24
2019-05-06T22:16:47.966Z,50.34
2019-05-06T22:19:21.457Z,51.11
2019-05-06T22:22:03.362Z,51.40
2019-05-06T22:24:57.342Z,52.98
2019-05-06T22:27:27.911Z,53.47
2019-05-06T22:30:03.073Z,55.46
2019-05-06T22:32:36.910Z,54.83
2019-05-06T22:35:11.928Z,57.02
2019-05-06T22:37:45.071Z,55.06
2019-05-06T22:40:18.670Z,56.93
2019-05-06T22:42:52.824Z,58.04
2019-05-06T22:45:25.528Z,57.74
2019-05-06T22:47:58.409Z,59.13
2019-05-06T22:50:32.894Z,58.74
2019-05-06T22:53:05.407Z,60.84
2019-05-06T22:55:38.749Z,60.45
2019-05-06T22:58:11.949Z,61.16
2019-05-06T23:00:53.701Z,62.68
2019-05-06T23:03:28.309Z,60.51
2019-05-06T23:06:02.537Z,51.13
2019-05-06T23:08:35.617Z,49.87
2019-05-06T23:11:08.290Z,51.40
2019-05-06T23:13:41.917Z,52.02
2019-05-06T23:16:15.490Z,52.75
2019-05-06T23:18:48.882Z,54.10
2019-05-06T23:21:23.210Z,53.77
2019-05-06T23:23:55.988Z,56.16
2019-05-06T23:26:28.676Z,55.35
2019-05-06T23:29:02.459Z,58.36
2019-05-06T23:31:36.787Z,57.69
2019-05-06T23:34:09.468Z,59.34
2019-05-06T23:37:04.884Z,59.88
2019-05-06T23:40:33.466Z,60.58
2019-05-06T23:44:00.322Z,63.58
2019-05-06T23:47:27.161Z,50.85
2019-05-06T23:50:54.125Z,51.33
2019-05-06T23:54:22.041Z,52.65
2019-05-06T23:56:52.930Z,54.34
2019-05-06T23:59:26.887Z,57.01
